KEWN/EWN METAR and TAF weather

Enter ICAO airport designator
Station Type Date Time Source
KEWN METAR 2022/05/25 01:16 UTC NOAA

KEWN 250116Z 34003KT 10SM BKN009 BKN012 23/22 A3012 RMK AO2 CIG 005V010 T02280222


Station Type Date Time Source
KEWN Decoded METAR 2022/05/25 01:16 UTC NOAA

New Bern, Craven County Regional Airport, NC, United States (KEWN) 35-04-03N 077-02-50W 3M
May 24, 2022 - 09:16 PM EDT / 2022.05.25 0116 UTC
Wind: from the NNW (340 degrees) at 3 MPH (3 KT):0
Visibility: 10 mile(s):0
Sky conditions: mostly cloudy
Temperature: 73.0 F (22.8 C)
Dew Point: 72.0 F (22.2 C)
Relative Humidity: 96%
Pressure (altimeter): 30.12 in. Hg (1019 hPa)
ob: KEWN 250116Z 34003KT 10SM BKN009 BKN012 23/22 A3012 RMK AO2 CIG 005V010 T02280222
cycle: 1

Station Type Date Time Source
KEWN TAF 2022/05/24 23:40 UTC NOAA

TAF
AMD KEWN 242238Z 2423/2518 19010KT P6SM VCTS SCT025CB BKN045
TEMPO 2422/2424 1SM +TSRA BKN015CB
FM250000 21008KT P6SM VCSH SCT015 OVC025
FM250300 28004KT P6SM OVC007
FM250800 33004KT 3SM BR OVC004
FM251500 33004KT P6SM BKN007

Example: see airport list